sensor_id;sensor_type;location;lat;lon;timestamp;P1;durP1;ratioP1;P2;durP2;ratioP2
51382;SDS011;37475;43.358;1.248;2023-07-13T00:01:53;4.43;;;2.05;;
51382;SDS011;37475;43.358;1.248;2023-07-13T00:04:20;4.38;;;2.15;;
51382;SDS011;37475;43.358;1.248;2023-07-13T00:06:51;6.28;;;2.40;;
51382;SDS011;37475;43.358;1.248;2023-07-13T00:09:18;4.28;;;2.25;;
51382;SDS011;37475;43.358;1.248;2023-07-13T00:11:45;3.05;;;1.80;;
51382;SDS011;37475;43.358;1.248;2023-07-13T00:14:17;4.78;;;2.50;;
51382;SDS011;37475;43.358;1.248;2023-07-13T00:16:43;4.65;;;2.53;;
51382;SDS011;37475;43.358;1.248;2023-07-13T00:19:09;6.07;;;2.35;;
51382;SDS011;37475;43.358;1.248;2023-07-13T00:21:37;6.43;;;2.35;;
51382;SDS011;37475;43.358;1.248;2023-07-13T00:24:05;4.30;;;2.70;;
51382;SDS011;37475;43.358;1.248;2023-07-13T00:26:33;3.90;;;2.00;;
51382;SDS011;37475;43.358;1.248;2023-07-13T00:28:59;6.10;;;2.40;;
51382;SDS011;37475;43.358;1.248;2023-07-13T00:31:25;6.13;;;2.70;;
51382;SDS011;37475;43.358;1.248;2023-07-13T00:33:51;4.50;;;2.38;;
51382;SDS011;37475;43.358;1.248;2023-07-13T00:36:17;4.88;;;2.35;;
51382;SDS011;37475;43.358;1.248;2023-07-13T00:38:43;5.45;;;2.40;;
51382;SDS011;37475;43.358;1.248;2023-07-13T00:41:09;5.85;;;2.42;;
51382;SDS011;37475;43.358;1.248;2023-07-13T00:43:35;6.72;;;2.60;;
51382;SDS011;37475;43.358;1.248;2023-07-13T00:48:27;5.43;;;2.47;;
51382;SDS011;37475;43.358;1.248;2023-07-13T00:51:00;5.85;;;2.63;;
51382;SDS011;37475;43.358;1.248;2023-07-13T00:53:26;5.85;;;2.35;;
51382;SDS011;37475;43.358;1.248;2023-07-13T00:55:55;5.13;;;2.20;;
51382;SDS011;37475;43.358;1.248;2023-07-13T00:58:22;9.32;;;2.83;;
51382;SDS011;37475;43.358;1.248;2023-07-13T01:00:52;7.43;;;2.20;;
51382;SDS011;37475;43.358;1.248;2023-07-13T01:03:18;5.57;;;2.50;;
51382;SDS011;37475;43.358;1.248;2023-07-13T01:05:44;5.72;;;2.58;;
51382;SDS011;37475;43.358;1.248;2023-07-13T01:08:14;8.13;;;2.50;;
51382;SDS011;37475;43.358;1.248;2023-07-13T01:10:41;6.13;;;2.65;;
51382;SDS011;37475;43.358;1.248;2023-07-13T01:13:16;5.80;;;2.50;;
51382;SDS011;37475;43.358;1.248;2023-07-13T01:15:44;6.43;;;2.40;;
51382;SDS011;37475;43.358;1.248;2023-07-13T01:18:14;5.97;;;2.58;;
51382;SDS011;37475;43.358;1.248;2023-07-13T01:20:56;5.65;;;2.72;;
51382;SDS011;37475;43.358;1.248;2023-07-13T01:23:25;6.63;;;2.42;;
51382;SDS011;37475;43.358;1.248;2023-07-13T01:25:52;6.13;;;2.83;;
51382;SDS011;37475;43.358;1.248;2023-07-13T01:28:20;5.25;;;2.42;;
51382;SDS011;37475;43.358;1.248;2023-07-13T01:30:47;5.38;;;2.60;;
51382;SDS011;37475;43.358;1.248;2023-07-13T01:33:14;6.82;;;2.40;;
51382;SDS011;37475;43.358;1.248;2023-07-13T01:35:43;6.38;;;2.35;;
51382;SDS011;37475;43.358;1.248;2023-07-13T01:38:11;7.18;;;2.65;;
51382;SDS011;37475;43.358;1.248;2023-07-13T01:40:39;7.82;;;2.55;;
51382;SDS011;37475;43.358;1.248;2023-07-13T01:43:05;6.22;;;2.58;;
51382;SDS011;37475;43.358;1.248;2023-07-13T01:45:31;6.75;;;2.63;;
51382;SDS011;37475;43.358;1.248;2023-07-13T01:47:57;7.75;;;2.85;;
51382;SDS011;37475;43.358;1.248;2023-07-13T01:50:24;5.45;;;2.70;;
51382;SDS011;37475;43.358;1.248;2023-07-13T01:52:51;5.95;;;2.90;;
51382;SDS011;37475;43.358;1.248;2023-07-13T01:55:17;6.07;;;2.70;;
51382;SDS011;37475;43.358;1.248;2023-07-13T01:57:42;7.15;;;2.80;;
51382;SDS011;37475;43.358;1.248;2023-07-13T02:00:09;6.50;;;2.53;;
51382;SDS011;37475;43.358;1.248;2023-07-13T02:02:36;5.82;;;2.47;;
51382;SDS011;37475;43.358;1.248;2023-07-13T02:05:02;5.32;;;2.70;;
51382;SDS011;37475;43.358;1.248;2023-07-13T02:07:28;4.18;;;2.67;;
51382;SDS011;37475;43.358;1.248;2023-07-13T02:09:54;5.15;;;2.53;;
51382;SDS011;37475;43.358;1.248;2023-07-13T02:12:19;6.05;;;2.83;;
51382;SDS011;37475;43.358;1.248;2023-07-13T02:14:45;5.30;;;2.90;;
51382;SDS011;37475;43.358;1.248;2023-07-13T02:17:11;4.43;;;2.40;;
51382;SDS011;37475;43.358;1.248;2023-07-13T02:19:39;5.43;;;2.20;;
51382;SDS011;37475;43.358;1.248;2023-07-13T02:22:05;6.22;;;2.45;;
51382;SDS011;37475;43.358;1.248;2023-07-13T02:24:31;6.10;;;2.53;;
51382;SDS011;37475;43.358;1.248;2023-07-13T02:26:56;5.45;;;2.38;;
51382;SDS011;37475;43.358;1.248;2023-07-13T02:29:22;6.40;;;2.50;;
51382;SDS011;37475;43.358;1.248;2023-07-13T02:31:48;5.18;;;2.55;;
51382;SDS011;37475;43.358;1.248;2023-07-13T02:34:14;6.60;;;2.58;;
51382;SDS011;37475;43.358;1.248;2023-07-13T02:36:40;5.03;;;2.40;;
51382;SDS011;37475;43.358;1.248;2023-07-13T02:39:06;5.00;;;2.60;;
51382;SDS011;37475;43.358;1.248;2023-07-13T02:41:32;6.00;;;2.47;;
51382;SDS011;37475;43.358;1.248;2023-07-13T02:43:58;6.25;;;2.50;;
51382;SDS011;37475;43.358;1.248;2023-07-13T02:46:37;6.53;;;2.35;;
51382;SDS011;37475;43.358;1.248;2023-07-13T02:49:03;7.15;;;2.45;;
51382;SDS011;37475;43.358;1.248;2023-07-13T02:51:29;8.02;;;2.50;;
51382;SDS011;37475;43.358;1.248;2023-07-13T02:53:55;5.60;;;2.42;;
51382;SDS011;37475;43.358;1.248;2023-07-13T02:56:22;7.57;;;2.85;;
51382;SDS011;37475;43.358;1.248;2023-07-13T02:58:51;7.38;;;2.72;;
51382;SDS011;37475;43.358;1.248;2023-07-13T03:01:19;6.32;;;2.75;;
51382;SDS011;37475;43.358;1.248;2023-07-13T03:03:46;6.25;;;2.28;;
51382;SDS011;37475;43.358;1.248;2023-07-13T03:06:17;9.27;;;2.50;;
51382;SDS011;37475;43.358;1.248;2023-07-13T03:08:43;6.20;;;2.40;;
51382;SDS011;37475;43.358;1.248;2023-07-13T03:11:13;6.45;;;2.60;;
51382;SDS011;37475;43.358;1.248;2023-07-13T03:13:43;5.80;;;2.50;;
51382;SDS011;37475;43.358;1.248;2023-07-13T03:16:09;8.15;;;2.47;;
51382;SDS011;37475;43.358;1.248;2023-07-13T03:18:36;5.93;;;2.28;;
51382;SDS011;37475;43.358;1.248;2023-07-13T03:21:02;7.53;;;2.35;;
51382;SDS011;37475;43.358;1.248;2023-07-13T03:23:29;7.65;;;2.13;;
51382;SDS011;37475;43.358;1.248;2023-07-13T03:26:12;5.90;;;2.22;;
51382;SDS011;37475;43.358;1.248;2023-07-13T03:28:41;7.90;;;2.50;;
51382;SDS011;37475;43.358;1.248;2023-07-13T03:31:08;7.22;;;2.70;;
51382;SDS011;37475;43.358;1.248;2023-07-13T03:33:43;10.70;;;2.70;;
51382;SDS011;37475;43.358;1.248;2023-07-13T03:36:12;6.97;;;2.70;;
51382;SDS011;37475;43.358;1.248;2023-07-13T03:38:44;5.90;;;2.70;;
51382;SDS011;37475;43.358;1.248;2023-07-13T03:41:15;7.63;;;2.30;;
51382;SDS011;37475;43.358;1.248;2023-07-13T03:43:41;5.18;;;2.42;;
51382;SDS011;37475;43.358;1.248;2023-07-13T03:46:08;5.82;;;2.30;;
51382;SDS011;37475;43.358;1.248;2023-07-13T03:48:35;9.60;;;2.40;;
51382;SDS011;37475;43.358;1.248;2023-07-13T03:51:01;9.90;;;2.70;;
51382;SDS011;37475;43.358;1.248;2023-07-13T03:53:27;6.88;;;2.10;;
51382;SDS011;37475;43.358;1.248;2023-07-13T03:55:53;6.50;;;2.47;;
51382;SDS011;37475;43.358;1.248;2023-07-13T03:58:27;7.18;;;2.22;;
51382;SDS011;37475;43.358;1.248;2023-07-13T04:01:04;5.63;;;2.15;;
51382;SDS011;37475;43.358;1.248;2023-07-13T04:03:32;9.52;;;2.50;;
51382;SDS011;37475;43.358;1.248;2023-07-13T04:06:00;7.78;;;2.30;;
51382;SDS011;37475;43.358;1.248;2023-07-13T04:08:28;8.80;;;2.47;;
51382;SDS011;37475;43.358;1.248;2023-07-13T04:10:56;8.35;;;2.65;;
51382;SDS011;37475;43.358;1.248;2023-07-13T04:13:23;5.82;;;2.05;;
51382;SDS011;37475;43.358;1.248;2023-07-13T04:15:50;6.50;;;2.22;;
51382;SDS011;37475;43.358;1.248;2023-07-13T04:18:17;7.50;;;2.45;;
51382;SDS011;37475;43.358;1.248;2023-07-13T04:20:44;4.97;;;2.40;;
51382;SDS011;37475;43.358;1.248;2023-07-13T04:23:12;8.60;;;2.40;;
51382;SDS011;37475;43.358;1.248;2023-07-13T04:25:38;8.20;;;2.42;;
51382;SDS011;37475;43.358;1.248;2023-07-13T04:28:04;4.63;;;2.30;;
51382;SDS011;37475;43.358;1.248;2023-07-13T04:30:32;6.43;;;2.50;;
51382;SDS011;37475;43.358;1.248;2023-07-13T04:32:57;6.63;;;2.45;;
51382;SDS011;37475;43.358;1.248;2023-07-13T04:35:23;6.13;;;2.10;;
51382;SDS011;37475;43.358;1.248;2023-07-13T04:37:49;10.68;;;2.50;;
51382;SDS011;37475;43.358;1.248;2023-07-13T04:40:18;7.63;;;2.70;;
51382;SDS011;37475;43.358;1.248;2023-07-13T04:42:45;6.15;;;2.30;;
51382;SDS011;37475;43.358;1.248;2023-07-13T04:45:12;10.05;;;3.05;;
51382;SDS011;37475;43.358;1.248;2023-07-13T04:47:40;8.00;;;2.45;;
51382;SDS011;37475;43.358;1.248;2023-07-13T04:50:06;6.43;;;2.40;;
51382;SDS011;37475;43.358;1.248;2023-07-13T04:52:34;8.55;;;2.47;;
51382;SDS011;37475;43.358;1.248;2023-07-13T04:54:59;11.10;;;2.28;;
51382;SDS011;37475;43.358;1.248;2023-07-13T04:57:26;6.30;;;2.13;;
51382;SDS011;37475;43.358;1.248;2023-07-13T04:59:53;8.25;;;2.25;;
51382;SDS011;37475;43.358;1.248;2023-07-13T05:02:20;6.70;;;2.50;;
51382;SDS011;37475;43.358;1.248;2023-07-13T05:04:47;9.82;;;2.53;;
51382;SDS011;37475;43.358;1.248;2023-07-13T05:07:13;8.93;;;2.50;;
51382;SDS011;37475;43.358;1.248;2023-07-13T05:09:39;8.60;;;2.67;;
51382;SDS011;37475;43.358;1.248;2023-07-13T05:12:06;8.95;;;2.50;;
51382;SDS011;37475;43.358;1.248;2023-07-13T05:14:34;7.60;;;2.40;;
51382;SDS011;37475;43.358;1.248;2023-07-13T05:16:59;7.88;;;2.60;;
51382;SDS011;37475;43.358;1.248;2023-07-13T05:19:25;7.97;;;2.58;;
51382;SDS011;37475;43.358;1.248;2023-07-13T05:21:51;10.23;;;2.45;;
51382;SDS011;37475;43.358;1.248;2023-07-13T05:24:17;6.35;;;2.33;;
51382;SDS011;37475;43.358;1.248;2023-07-13T05:26:43;7.30;;;2.30;;
51382;SDS011;37475;43.358;1.248;2023-07-13T05:29:09;9.90;;;2.53;;
51382;SDS011;37475;43.358;1.248;2023-07-13T05:31:35;7.20;;;2.33;;
51382;SDS011;37475;43.358;1.248;2023-07-13T05:34:01;6.38;;;2.40;;
51382;SDS011;37475;43.358;1.248;2023-07-13T05:36:27;10.32;;;2.45;;
51382;SDS011;37475;43.358;1.248;2023-07-13T05:38:53;6.15;;;2.10;;
51382;SDS011;37475;43.358;1.248;2023-07-13T05:41:19;8.38;;;2.28;;
51382;SDS011;37475;43.358;1.248;2023-07-13T05:43:45;7.63;;;1.85;;
51382;SDS011;37475;43.358;1.248;2023-07-13T05:46:10;6.35;;;2.33;;
51382;SDS011;37475;43.358;1.248;2023-07-13T05:48:36;6.35;;;2.22;;
51382;SDS011;37475;43.358;1.248;2023-07-13T05:51:02;7.20;;;2.20;;
51382;SDS011;37475;43.358;1.248;2023-07-13T05:53:28;10.90;;;2.42;;
51382;SDS011;37475;43.358;1.248;2023-07-13T05:55:54;8.95;;;2.15;;
51382;SDS011;37475;43.358;1.248;2023-07-13T05:58:21;7.75;;;1.95;;
51382;SDS011;37475;43.358;1.248;2023-07-13T06:00:47;5.38;;;2.25;;
51382;SDS011;37475;43.358;1.248;2023-07-13T06:03:14;8.15;;;2.17;;
51382;SDS011;37475;43.358;1.248;2023-07-13T06:05:41;6.68;;;1.80;;
51382;SDS011;37475;43.358;1.248;2023-07-13T06:08:07;7.85;;;2.30;;
51382;SDS011;37475;43.358;1.248;2023-07-13T06:10:34;8.85;;;2.22;;
51382;SDS011;37475;43.358;1.248;2023-07-13T06:13:01;6.53;;;2.10;;
51382;SDS011;37475;43.358;1.248;2023-07-13T06:15:28;4.82;;;1.90;;
51382;SDS011;37475;43.358;1.248;2023-07-13T06:17:54;5.68;;;1.80;;
51382;SDS011;37475;43.358;1.248;2023-07-13T06:20:19;5.45;;;2.05;;
51382;SDS011;37475;43.358;1.248;2023-07-13T06:22:45;7.50;;;1.85;;
51382;SDS011;37475;43.358;1.248;2023-07-13T06:25:11;8.75;;;1.60;;
51382;SDS011;37475;43.358;1.248;2023-07-13T06:27:37;5.22;;;1.92;;
51382;SDS011;37475;43.358;1.248;2023-07-13T06:30:02;6.45;;;1.83;;
51382;SDS011;37475;43.358;1.248;2023-07-13T06:32:29;6.78;;;2.20;;
51382;SDS011;37475;43.358;1.248;2023-07-13T06:34:55;6.95;;;1.70;;
51382;SDS011;37475;43.358;1.248;2023-07-13T06:37:21;7.22;;;1.80;;
51382;SDS011;37475;43.358;1.248;2023-07-13T06:39:46;4.85;;;1.50;;
51382;SDS011;37475;43.358;1.248;2023-07-13T06:42:12;4.38;;;1.40;;
51382;SDS011;37475;43.358;1.248;2023-07-13T06:44:38;4.60;;;1.70;;
51382;SDS011;37475;43.358;1.248;2023-07-13T06:47:04;5.47;;;1.73;;
51382;SDS011;37475;43.358;1.248;2023-07-13T06:49:30;9.23;;;1.70;;
51382;SDS011;37475;43.358;1.248;2023-07-13T06:51:56;5.18;;;1.98;;
51382;SDS011;37475;43.358;1.248;2023-07-13T06:54:22;5.28;;;1.55;;
51382;SDS011;37475;43.358;1.248;2023-07-13T06:56:48;5.30;;;1.50;;
51382;SDS011;37475;43.358;1.248;2023-07-13T06:59:13;6.22;;;1.60;;
51382;SDS011;37475;43.358;1.248;2023-07-13T07:01:39;6.38;;;1.77;;
51382;SDS011;37475;43.358;1.248;2023-07-13T07:04:05;7.55;;;1.60;;
51382;SDS011;37475;43.358;1.248;2023-07-13T07:06:31;5.32;;;1.58;;
51382;SDS011;37475;43.358;1.248;2023-07-13T07:08:56;5.82;;;1.70;;
51382;SDS011;37475;43.358;1.248;2023-07-13T07:11:23;5.00;;;1.55;;
51382;SDS011;37475;43.358;1.248;2023-07-13T07:13:50;5.85;;;1.58;;
51382;SDS011;37475;43.358;1.248;2023-07-13T07:16:18;6.88;;;1.67;;
51382;SDS011;37475;43.358;1.248;2023-07-13T07:18:45;6.70;;;1.95;;
51382;SDS011;37475;43.358;1.248;2023-07-13T07:21:12;5.97;;;1.60;;
51382;SDS011;37475;43.358;1.248;2023-07-13T07:23:38;6.75;;;1.70;;
51382;SDS011;37475;43.358;1.248;2023-07-13T07:26:05;4.38;;;1.50;;
51382;SDS011;37475;43.358;1.248;2023-07-13T07:28:33;7.65;;;1.75;;
51382;SDS011;37475;43.358;1.248;2023-07-13T07:30:59;6.35;;;1.58;;
51382;SDS011;37475;43.358;1.248;2023-07-13T07:33:25;5.38;;;1.55;;
51382;SDS011;37475;43.358;1.248;2023-07-13T07:35:51;6.97;;;1.85;;
51382;SDS011;37475;43.358;1.248;2023-07-13T07:38:17;7.45;;;1.50;;
51382;SDS011;37475;43.358;1.248;2023-07-13T07:40:43;4.22;;;1.65;;
51382;SDS011;37475;43.358;1.248;2023-07-13T07:43:10;5.43;;;1.48;;
51382;SDS011;37475;43.358;1.248;2023-07-13T07:45:38;5.47;;;1.60;;
51382;SDS011;37475;43.358;1.248;2023-07-13T07:48:05;7.60;;;1.50;;
51382;SDS011;37475;43.358;1.248;2023-07-13T07:50:32;5.43;;;1.92;;
51382;SDS011;37475;43.358;1.248;2023-07-13T07:52:58;4.13;;;1.50;;
51382;SDS011;37475;43.358;1.248;2023-07-13T07:55:25;7.80;;;1.77;;
51382;SDS011;37475;43.358;1.248;2023-07-13T07:57:51;6.70;;;1.50;;
51382;SDS011;37475;43.358;1.248;2023-07-13T08:00:17;3.00;;;1.35;;
51382;SDS011;37475;43.358;1.248;2023-07-13T08:02:44;5.53;;;1.60;;
51382;SDS011;37475;43.358;1.248;2023-07-13T08:05:10;3.38;;;1.33;;
51382;SDS011;37475;43.358;1.248;2023-07-13T08:07:36;4.80;;;1.55;;
51382;SDS011;37475;43.358;1.248;2023-07-13T08:10:04;5.07;;;1.48;;
51382;SDS011;37475;43.358;1.248;2023-07-13T08:12:35;6.90;;;1.45;;
51382;SDS011;37475;43.358;1.248;2023-07-13T08:15:05;3.42;;;1.33;;
51382;SDS011;37475;43.358;1.248;2023-07-13T08:17:35;5.78;;;1.50;;
51382;SDS011;37475;43.358;1.248;2023-07-13T08:20:01;8.00;;;1.60;;
51382;SDS011;37475;43.358;1.248;2023-07-13T08:22:27;5.82;;;1.52;;
51382;SDS011;37475;43.358;1.248;2023-07-13T08:24:53;6.57;;;1.50;;
51382;SDS011;37475;43.358;1.248;2023-07-13T08:27:22;3.80;;;1.63;;
51382;SDS011;37475;43.358;1.248;2023-07-13T08:29:49;4.30;;;1.48;;
51382;SDS011;37475;43.358;1.248;2023-07-13T08:32:16;7.13;;;1.77;;
51382;SDS011;37475;43.358;1.248;2023-07-13T08:34:44;4.32;;;1.48;;
51382;SDS011;37475;43.358;1.248;2023-07-13T08:37:10;8.88;;;1.63;;
51382;SDS011;37475;43.358;1.248;2023-07-13T08:39:36;5.97;;;1.40;;
51382;SDS011;37475;43.358;1.248;2023-07-13T08:42:05;6.60;;;1.80;;
51382;SDS011;37475;43.358;1.248;2023-07-13T08:45:14;5.70;;;1.33;;
51382;SDS011;37475;43.358;1.248;2023-07-13T08:47:57;4.00;;;1.33;;
51382;SDS011;37475;43.358;1.248;2023-07-13T08:50:45;4.25;;;1.35;;
51382;SDS011;37475;43.358;1.248;2023-07-13T08:53:26;9.48;;;1.60;;
51382;SDS011;37475;43.358;1.248;2023-07-13T08:56:02;6.40;;;1.50;;
51382;SDS011;37475;43.358;1.248;2023-07-13T08:58:30;6.75;;;1.38;;
51382;SDS011;37475;43.358;1.248;2023-07-13T09:04:02;3.00;;;1.20;;
51382;SDS011;37475;43.358;1.248;2023-07-13T09:07:21;5.57;;;1.33;;
51382;SDS011;37475;43.358;1.248;2023-07-13T09:09:50;5.30;;;1.20;;
51382;SDS011;37475;43.358;1.248;2023-07-13T09:17:57;3.25;;;1.10;;
51382;SDS011;37475;43.358;1.248;2023-07-13T09:21:13;5.90;;;1.42;;
51382;SDS011;37475;43.358;1.248;2023-07-13T09:23:56;5.20;;;1.27;;
51382;SDS011;37475;43.358;1.248;2023-07-13T09:26:54;3.35;;;1.02;;
51382;SDS011;37475;43.358;1.248;2023-07-13T09:29:32;3.60;;;1.10;;
51382;SDS011;37475;43.358;1.248;2023-07-13T09:32:03;4.80;;;1.27;;
51382;SDS011;37475;43.358;1.248;2023-07-13T09:34:33;6.63;;;1.90;;
51382;SDS011;37475;43.358;1.248;2023-07-13T09:36:59;3.60;;;1.27;;
51382;SDS011;37475;43.358;1.248;2023-07-13T09:39:29;4.32;;;1.38;;
51382;SDS011;37475;43.358;1.248;2023-07-13T09:42:14;4.82;;;1.15;;
51382;SDS011;37475;43.358;1.248;2023-07-13T09:47:23;5.60;;;1.35;;
51382;SDS011;37475;43.358;1.248;2023-07-13T09:50:06;5.97;;;1.40;;
51382;SDS011;37475;43.358;1.248;2023-07-13T09:52:40;3.42;;;1.20;;
51382;SDS011;37475;43.358;1.248;2023-07-13T09:58:02;4.72;;;1.10;;
51382;SDS011;37475;43.358;1.248;2023-07-13T10:00:36;4.95;;;1.20;;
51382;SDS011;37475;43.358;1.248;2023-07-13T10:03:22;4.43;;;1.30;;
51382;SDS011;37475;43.358;1.248;2023-07-13T10:05:52;3.28;;;1.27;;
51382;SDS011;37475;43.358;1.248;2023-07-13T10:08:23;3.42;;;1.10;;
51382;SDS011;37475;43.358;1.248;2023-07-13T10:11:00;4.05;;;1.27;;
51382;SDS011;37475;43.358;1.248;2023-07-13T10:13:29;4.20;;;1.20;;
51382;SDS011;37475;43.358;1.248;2023-07-13T10:16:15;4.70;;;1.20;;
51382;SDS011;37475;43.358;1.248;2023-07-13T10:21:36;3.67;;;1.40;;
51382;SDS011;37475;43.358;1.248;2023-07-13T10:24:19;5.90;;;1.20;;
51382;SDS011;37475;43.358;1.248;2023-07-13T10:27:33;3.50;;;1.27;;
51382;SDS011;37475;43.358;1.248;2023-07-13T10:29:50;5.38;;;1.48;;
51382;SDS011;37475;43.358;1.248;2023-07-13T10:32:27;7.32;;;1.42;;
51382;SDS011;37475;43.358;1.248;2023-07-13T10:34:53;4.68;;;1.20;;
51382;SDS011;37475;43.358;1.248;2023-07-13T10:37:24;6.55;;;1.40;;
51382;SDS011;37475;43.358;1.248;2023-07-13T10:39:55;6.00;;;1.25;;
51382;SDS011;37475;43.358;1.248;2023-07-13T10:42:39;3.47;;;1.23;;
51382;SDS011;37475;43.358;1.248;2023-07-13T10:45:28;4.63;;;1.17;;
51382;SDS011;37475;43.358;1.248;2023-07-13T10:47:59;4.05;;;1.10;;
51382;SDS011;37475;43.358;1.248;2023-07-13T10:50:27;3.60;;;1.13;;
51382;SDS011;37475;43.358;1.248;2023-07-13T10:52:55;4.68;;;1.40;;
51382;SDS011;37475;43.358;1.248;2023-07-13T10:58:19;3.85;;;1.10;;
51382;SDS011;37475;43.358;1.248;2023-07-13T11:11:53;4.60;;;1.00;;
51382;SDS011;37475;43.358;1.248;2023-07-13T11:28:04;4.10;;;1.10;;
51382;SDS011;37475;43.358;1.248;2023-07-13T11:30:50;4.18;;;0.98;;
51382;SDS011;37475;43.358;1.248;2023-07-13T11:36:05;3.10;;;1.00;;
51382;SDS011;37475;43.358;1.248;2023-07-13T11:38:39;2.42;;;0.90;;
51382;SDS011;37475;43.358;1.248;2023-07-13T11:41:20;3.33;;;1.10;;
51382;SDS011;37475;43.358;1.248;2023-07-13T11:43:49;4.03;;;1.20;;
51382;SDS011;37475;43.358;1.248;2023-07-13T11:46:26;4.25;;;1.10;;
51382;SDS011;37475;43.358;1.248;2023-07-13T11:48:53;4.05;;;1.17;;
51382;SDS011;37475;43.358;1.248;2023-07-13T11:51:21;3.67;;;0.98;;
51382;SDS011;37475;43.358;1.248;2023-07-13T11:53:57;7.55;;;1.20;;
51382;SDS011;37475;43.358;1.248;2023-07-13T11:56:28;5.03;;;1.17;;
51382;SDS011;37475;43.358;1.248;2023-07-13T11:58:57;4.18;;;0.90;;
51382;SDS011;37475;43.358;1.248;2023-07-13T12:01:30;3.47;;;1.00;;
51382;SDS011;37475;43.358;1.248;2023-07-13T12:04:08;4.45;;;1.00;;
51382;SDS011;37475;43.358;1.248;2023-07-13T12:07:18;4.97;;;0.90;;
51382;SDS011;37475;43.358;1.248;2023-07-13T12:09:43;2.75;;;1.05;;
51382;SDS011;37475;43.358;1.248;2023-07-13T12:12:13;3.25;;;1.00;;
51382;SDS011;37475;43.358;1.248;2023-07-13T12:14:42;3.97;;;0.80;;
51382;SDS011;37475;43.358;1.248;2023-07-13T12:17:11;2.83;;;1.00;;
51382;SDS011;37475;43.358;1.248;2023-07-13T12:19:45;3.53;;;1.00;;
51382;SDS011;37475;43.358;1.248;2023-07-13T12:22:14;3.13;;;1.20;;
51382;SDS011;37475;43.358;1.248;2023-07-13T12:24:44;2.58;;;1.00;;
51382;SDS011;37475;43.358;1.248;2023-07-13T12:27:18;2.55;;;0.90;;
51382;SDS011;37475;43.358;1.248;2023-07-13T12:32:30;3.10;;;0.90;;
51382;SDS011;37475;43.358;1.248;2023-07-13T12:35:16;4.63;;;1.08;;
51382;SDS011;37475;43.358;1.248;2023-07-13T12:37:44;2.95;;;0.80;;
51382;SDS011;37475;43.358;1.248;2023-07-13T12:40:19;1.92;;;0.80;;
51382;SDS011;37475;43.358;1.248;2023-07-13T12:42:49;4.22;;;1.15;;
51382;SDS011;37475;43.358;1.248;2023-07-13T12:45:24;3.15;;;0.80;;
51382;SDS011;37475;43.358;1.248;2023-07-13T12:47:57;5.72;;;0.95;;
51382;SDS011;37475;43.358;1.248;2023-07-13T12:50:39;2.50;;;0.80;;
51382;SDS011;37475;43.358;1.248;2023-07-13T12:53:15;2.85;;;0.77;;
51382;SDS011;37475;43.358;1.248;2023-07-13T12:55:49;3.00;;;0.90;;
51382;SDS011;37475;43.358;1.248;2023-07-13T13:01:05;3.78;;;0.93;;
51382;SDS011;37475;43.358;1.248;2023-07-13T13:03:35;2.70;;;0.90;;
51382;SDS011;37475;43.358;1.248;2023-07-13T13:06:05;4.82;;;0.90;;
51382;SDS011;37475;43.358;1.248;2023-07-13T13:11:19;5.00;;;1.30;;
51382;SDS011;37475;43.358;1.248;2023-07-13T13:13:47;2.60;;;0.80;;
51382;SDS011;37475;43.358;1.248;2023-07-13T13:16:32;1.77;;;0.82;;
51382;SDS011;37475;43.358;1.248;2023-07-13T13:19:13;4.80;;;1.00;;
51382;SDS011;37475;43.358;1.248;2023-07-13T13:21:51;3.00;;;1.35;;
51382;SDS011;37475;43.358;1.248;2023-07-13T13:24:21;2.80;;;0.95;;
51382;SDS011;37475;43.358;1.248;2023-07-13T13:26:51;3.03;;;1.00;;
51382;SDS011;37475;43.358;1.248;2023-07-13T13:29:18;4.97;;;1.15;;
51382;SDS011;37475;43.358;1.248;2023-07-13T13:31:49;2.30;;;0.88;;
51382;SDS011;37475;43.358;1.248;2023-07-13T13:34:15;3.08;;;1.00;;
51382;SDS011;37475;43.358;1.248;2023-07-13T13:36:43;2.92;;;1.00;;
51382;SDS011;37475;43.358;1.248;2023-07-13T13:39:19;2.85;;;1.00;;
51382;SDS011;37475;43.358;1.248;2023-07-13T13:42:01;2.53;;;0.80;;
51382;SDS011;37475;43.358;1.248;2023-07-13T13:44:27;4.05;;;0.95;;
51382;SDS011;37475;43.358;1.248;2023-07-13T13:46:54;2.10;;;1.00;;
51382;SDS011;37475;43.358;1.248;2023-07-13T13:49:22;3.75;;;0.98;;
51382;SDS011;37475;43.358;1.248;2023-07-13T13:51:50;2.38;;;0.90;;
51382;SDS011;37475;43.358;1.248;2023-07-13T13:54:18;2.72;;;0.90;;
51382;SDS011;37475;43.358;1.248;2023-07-13T13:56:46;3.58;;;1.00;;
51382;SDS011;37475;43.358;1.248;2023-07-13T13:59:15;3.40;;;1.00;;
51382;SDS011;37475;43.358;1.248;2023-07-13T14:01:42;3.38;;;0.95;;
51382;SDS011;37475;43.358;1.248;2023-07-13T14:04:19;7.15;;;2.13;;
51382;SDS011;37475;43.358;1.248;2023-07-13T14:06:47;4.43;;;1.42;;
51382;SDS011;37475;43.358;1.248;2023-07-13T14:09:14;10.38;;;1.60;;
51382;SDS011;37475;43.358;1.248;2023-07-13T14:11:43;4.22;;;1.30;;
51382;SDS011;37475;43.358;1.248;2023-07-13T14:14:19;3.70;;;1.08;;
51382;SDS011;37475;43.358;1.248;2023-07-13T14:16:47;3.97;;;1.10;;
51382;SDS011;37475;43.358;1.248;2023-07-13T14:19:19;3.07;;;1.00;;
51382;SDS011;37475;43.358;1.248;2023-07-13T14:21:45;4.55;;;1.10;;
51382;SDS011;37475;43.358;1.248;2023-07-13T14:24:12;3.67;;;1.17;;
51382;SDS011;37475;43.358;1.248;2023-07-13T14:26:39;2.83;;;1.10;;
51382;SDS011;37475;43.358;1.248;2023-07-13T14:29:14;3.63;;;1.23;;
51382;SDS011;37475;43.358;1.248;2023-07-13T14:31:42;4.20;;;1.20;;
51382;SDS011;37475;43.358;1.248;2023-07-13T14:34:12;4.68;;;1.00;;
51382;SDS011;37475;43.358;1.248;2023-07-13T14:36:43;3.88;;;1.10;;
51382;SDS011;37475;43.358;1.248;2023-07-13T14:39:15;4.15;;;1.10;;
51382;SDS011;37475;43.358;1.248;2023-07-13T14:41:54;5.57;;;1.10;;
51382;SDS011;37475;43.358;1.248;2023-07-13T14:44:23;3.08;;;1.27;;
51382;SDS011;37475;43.358;1.248;2023-07-13T14:46:54;4.82;;;0.90;;
51382;SDS011;37475;43.358;1.248;2023-07-13T14:49:29;4.95;;;1.30;;
51382;SDS011;37475;43.358;1.248;2023-07-13T14:52:02;2.97;;;1.10;;
51382;SDS011;37475;43.358;1.248;2023-07-13T14:54:44;2.83;;;1.10;;
51382;SDS011;37475;43.358;1.248;2023-07-13T14:57:11;2.63;;;0.95;;
51382;SDS011;37475;43.358;1.248;2023-07-13T14:59:40;5.20;;;1.20;;
51382;SDS011;37475;43.358;1.248;2023-07-13T15:02:31;3.78;;;0.90;;
51382;SDS011;37475;43.358;1.248;2023-07-13T15:05:05;4.55;;;1.10;;
51382;SDS011;37475;43.358;1.248;2023-07-13T15:07:46;6.63;;;1.20;;
51382;SDS011;37475;43.358;1.248;2023-07-13T15:10:17;3.03;;;1.00;;
51382;SDS011;37475;43.358;1.248;2023-07-13T15:12:45;3.72;;;0.98;;
51382;SDS011;37475;43.358;1.248;2023-07-13T15:15:11;6.25;;;1.08;;
51382;SDS011;37475;43.358;1.248;2023-07-13T15:17:39;3.03;;;1.00;;
51382;SDS011;37475;43.358;1.248;2023-07-13T15:23:00;3.72;;;1.10;;
51382;SDS011;37475;43.358;1.248;2023-07-13T15:25:29;3.75;;;1.52;;
51382;SDS011;37475;43.358;1.248;2023-07-13T15:27:58;3.60;;;1.17;;
51382;SDS011;37475;43.358;1.248;2023-07-13T15:30:46;2.45;;;1.02;;
51382;SDS011;37475;43.358;1.248;2023-07-13T15:33:15;5.35;;;1.00;;
51382;SDS011;37475;43.358;1.248;2023-07-13T15:35:51;3.40;;;1.15;;
51382;SDS011;37475;43.358;1.248;2023-07-13T15:38:23;2.25;;;1.00;;
51382;SDS011;37475;43.358;1.248;2023-07-13T15:40:53;3.50;;;1.50;;
51382;SDS011;37475;43.358;1.248;2023-07-13T15:43:19;3.30;;;1.17;;
51382;SDS011;37475;43.358;1.248;2023-07-13T15:45:46;3.45;;;1.13;;
51382;SDS011;37475;43.358;1.248;2023-07-13T15:50:42;4.57;;;1.02;;
51382;SDS011;37475;43.358;1.248;2023-07-13T15:53:23;4.28;;;1.08;;
51382;SDS011;37475;43.358;1.248;2023-07-13T15:55:54;2.30;;;1.00;;
51382;SDS011;37475;43.358;1.248;2023-07-13T15:58:20;3.20;;;1.10;;
51382;SDS011;37475;43.358;1.248;2023-07-13T16:00:46;3.90;;;0.93;;
51382;SDS011;37475;43.358;1.248;2023-07-13T16:03:16;3.28;;;1.20;;
51382;SDS011;37475;43.358;1.248;2023-07-13T16:05:44;2.38;;;1.00;;
51382;SDS011;37475;43.358;1.248;2023-07-13T16:08:20;2.83;;;1.00;;